M. Luther — WDC7372 — position and weather

sailwx.info

Track history (hours):
 
Tides and Currents Weather Stations Pressure Air Temp Water Temp Dewpoint Dewpoint Depression Visibility Wind Speed Wind Dir Waves Ship Positions

M. Luther

Owner: Salmon Bay Barge Line, Inc., Seattle, WA. More information available from US FCC via Universal Licensing System and Coast Guard Vessel Documentation Center.

Last reported at 2015-Aug-22 17:33 UTC. Time now 2015-Aug-28 12:46 UTC.
Position N 47°33' W 122°21'.

Length 28 m; draft 4.1 m.

Type: Tow > 200 m length. MMSI: 367070410.

Date/timePositionNaut miles runAvg speedWind from/ knotsBaromVisibWave heightAir tempDewpointWater temp
2015-Aug-22 17:33N 47°33' W 122°21'0 0.0
2015-Aug-22 16:34N 47°33' W 122°21'4 4.4
2015-Aug-22 15:33N 47°37' W 122°25'6 6.4
2015-Aug-22 14:33N 47°43' W 122°28'7 7.1
2015-Aug-22 13:33N 47°50' W 122°29'7 6.7
2015-Aug-22 12:33N 47°56' W 122°33'6 6.2
2015-Aug-22 11:32N 48°01' W 122°39'6 5.3
2015-Aug-22 10:21N 48°07' W 122°42'5 5.3
2015-Aug-22 09:29N 48°10' W 122°47'4 4.6
2015-Aug-22 08:31N 48°14' W 122°49'8 7.8
2015-Aug-22 07:33N 48°21' W 122°46'8 8.6
2015-Aug-22 06:33N 48°30' W 122°45'8 8.1
2015-Aug-22 05:33N 48°38' W 122°45'7 6.9
2015-Aug-22 04:32N 48°45' W 122°47'8 7.7
2015-Aug-22 03:33N 48°49' W 122°57'8 8.0
2015-Aug-22 02:33N 48°54' W 123°07'7 7.4
2015-Aug-22 01:33N 48°59' W 123°15'6 6.3
2015-Aug-22 00:33N 49°04' W 123°20'6 6.0
2015-Aug-21 23:33N 49°08' W 123°13'7 6.6
2015-Aug-21 22:33N 49°08' W 123°03'2 2.0
2015-Aug-21 21:29N 49°09' W 123°00'0 0.0
2015-Aug-21 20:29N 49°09' W 123°00'0 0.0
2015-Aug-21 19:32N 49°09' W 123°00'0 0.0
2015-Aug-21 18:32N 49°09' W 123°00'0 0.0
2015-Aug-21 17:32N 49°09' W 123°00'0 0.0
2015-Aug-21 16:32N 49°09' W 123°00'0 0.0
2015-Aug-21 15:32N 49°09' W 123°00'0 0.0
2015-Aug-21 14:31N 49°09' W 123°00'0 0.0
2015-Aug-21 13:22N 49°09' W 123°00'0 0.0
2015-Aug-21 12:31N 49°09' W 123°00'0 0.0
2015-Aug-21 11:31N 49°09' W 123°00'0 0.0
2015-Aug-21 10:32N 49°09' W 123°00'0 0.0
2015-Aug-21 09:33N 49°09' W 123°00'0 0.0
2015-Aug-21 08:33N 49°09' W 123°00'0 0.0
2015-Aug-21 07:30N 49°09' W 123°00'0 0.0
2015-Aug-21 06:33N 49°09' W 123°00'0 0.0
2015-Aug-21 05:33N 49°09' W 123°00'0 0.0
2015-Aug-21 04:33N 49°09' W 123°00'0 0.0
2015-Aug-21 03:33N 49°09' W 123°00'0 0.0
2015-Aug-21 02:21N 49°09' W 123°00'0 0.0
2015-Aug-21 01:33N 49°09' W 123°00'0 0.0
2015-Aug-21 00:33N 49°09' W 123°00'0 0.0
2015-Aug-20 23:33N 49°09' W 123°00'0 0.0
2015-Aug-20 22:33N 49°09' W 123°00'0 0.0
2015-Aug-20 21:33N 49°09' W 123°00'0 0.0
2015-Aug-20 20:33N 49°09' W 123°00'0 0.0
2015-Aug-20 19:33N 49°09' W 123°00'0 0.0
2015-Aug-20 18:33N 49°09' W 123°00'0 0.0
2015-Aug-20 17:33N 49°09' W 123°00'0 0.0
2015-Aug-20 16:33N 49°09' W 123°00'0 0.0
2015-Aug-20 15:33N 49°09' W 123°00'0 0.0
2015-Aug-20 14:32N 49°09' W 123°00'0 0.0
2015-Aug-20 13:32N 49°09' W 123°00'0 0.0
2015-Aug-20 12:32N 49°09' W 123°00'0 0.0
2015-Aug-20 11:32N 49°09' W 123°00'0 0.0
2015-Aug-20 10:32N 49°09' W 123°00'0 0.0
2015-Aug-20 09:31N 49°09' W 123°00'0 0.0
2015-Aug-20 08:31N 49°09' W 123°00'0 0.0
2015-Aug-20 07:31N 49°09' W 123°00'0 0.0
2015-Aug-20 06:28N 49°09' W 123°00'0 0.0
2015-Aug-20 05:28N 49°09' W 123°00'0 0.0
2015-Aug-20 04:28N 49°09' W 123°00'0 0.0
2015-Aug-20 03:28N 49°09' W 123°00'0 0.0
2015-Aug-20 01:28N 49°09' W 123°00'0 0.0
2015-Aug-19 21:28N 49°09' W 123°00'0 0.0
2015-Aug-19 20:28N 49°09' W 123°00'0 0.0
2015-Aug-19 19:31N 49°09' W 123°00'0 0.0
2015-Aug-19 18:28N 49°09' W 123°00'0 0.0
2015-Aug-19 17:28N 49°09' W 123°00'0 0.0
2015-Aug-19 16:31N 49°09' W 123°00'0 0.0
2015-Aug-19 15:31N 49°09' W 123°00'0 0.0
2015-Aug-19 14:28N 49°09' W 123°00'0 0.0
2015-Aug-19 13:33N 49°09' W 123°00'0 0.0
2015-Aug-19 12:34N 49°09' W 123°00'2 2.3
2015-Aug-19 11:33N 49°08' W 123°03'5 4.7
2015-Aug-19 10:33N 49°07' W 123°10'4 4.5
2015-Aug-19 09:33N 49°07' W 123°17'4 3.7
2015-Aug-19 08:33N 49°03' W 123°18'5 5.4
2015-Aug-19 07:33N 48°59' W 123°12'5 5.4
2015-Aug-19 06:33N 48°56' W 123°05'5 5.3
2015-Aug-19 05:33N 48°52' W 122°59'8 7.7
2015-Aug-19 04:33N 48°47' W 122°50'8 7.8
2015-Aug-19 03:33N 48°41' W 122°43'9 9.4
2015-Aug-19 02:33N 48°32' W 122°44'9 9.2
2015-Aug-19 01:33N 48°23' W 122°44'25 6.3
2015-Aug-18 21:32N 47°58' W 122°34'8 7.7
2015-Aug-18 20:33N 47°52' W 122°28'8 8.2
2015-Aug-18 19:33N 47°44' W 122°26'8 7.6
2015-Aug-18 18:33N 47°37' W 122°23'4 3.7
2015-Aug-18 17:33N 47°33' W 122°21'0 0.0
2015-Aug-18 16:33N 47°33' W 122°21'0 0.0
2015-Aug-18 15:33N 47°33' W 122°21'0 0.0
2015-Aug-18 14:24N 47°33' W 122°21'0 0.0
2015-Aug-18 13:33N 47°33' W 122°21'0 0.0
2015-Aug-18 12:33N 47°33' W 122°21'0 0.0
2015-Aug-18 11:24N 47°33' W 122°21'0 0.0
2015-Aug-18 10:24N 47°33' W 122°21'0 0.0
2015-Aug-18 06:24N 47°33' W 122°21'0 0.0
2015-Aug-17 04:08N 47°33' W 122°21'0 0.0
2015-Aug-17 03:32N 47°33' W 122°21'0 0.0
2015-Aug-17 02:32N 47°33' W 122°21'0 0.0
2015-Aug-17 01:32N 47°33' W 122°21'0 0.0
2015-Aug-17 00:32N 47°33' W 122°21'0 0.0
2015-Aug-16 23:32N 47°33' W 122°21'0 0.0
2015-Aug-16 22:32N 47°33' W 122°21'0 0.0
2015-Aug-16 21:08N 47°33' W 122°21'0 0.0
2015-Aug-16 20:32N 47°33' W 122°21'0 0.0
2015-Aug-16 12:10N 47°33' W 122°21'0 0.0
2015-Aug-16 04:28N 47°33' W 122°21'0 0.0
2015-Aug-16 03:22N 47°33' W 122°21'0 0.0
2015-Aug-16 02:25N 47°33' W 122°21'0 0.0
2015-Aug-16 01:22N 47°33' W 122°21'0 0.0
2015-Aug-16 00:16N 47°33' W 122°21'0 0.0
2015-Aug-15 23:33N 47°33' W 122°21'0 0.0
2015-Aug-15 22:33N 47°33' W 122°21'0 0.0
2015-Aug-15 20:18N 47°33' W 122°21'0 0.0
2015-Aug-15 18:33N 47°33' W 122°21'0 0.0
2015-Aug-15 17:30N 47°33' W 122°21'0 0.0
2015-Aug-15 16:33N 47°33' W 122°21'0 0.0
2015-Aug-15 15:33N 47°33' W 122°21'0 0.0
2015-Aug-15 14:18N 47°33' W 122°21'0 0.0
2015-Aug-15 12:12N 47°33' W 122°21'0 0.0
2015-Aug-15 11:27N 47°33' W 122°21'0 0.0
2015-Aug-15 10:30N 47°33' W 122°21'0 0.0
2015-Aug-15 09:33N 47°33' W 122°21'0 0.0
2015-Aug-15 08:24N 47°33' W 122°21'0 0.0
2015-Aug-15 07:33N 47°33' W 122°21'0 0.0
2015-Aug-15 06:30N 47°33' W 122°21'0 0.0
2015-Aug-15 03:30N 47°33' W 122°21'0 0.0
2015-Aug-15 02:12N 47°33' W 122°21'0 0.0
2015-Aug-15 01:30N 47°33' W 122°21'0 0.0
2015-Aug-15 00:33N 47°33' W 122°21'0 0.0
2015-Aug-14 23:33N 47°33' W 122°21'0 0.0
2015-Aug-14 22:24N 47°33' W 122°21'0 0.0
2015-Aug-14 21:27N 47°33' W 122°21'0 0.0
2015-Aug-14 18:30N 47°33' W 122°21'0 0.0
2015-Aug-14 17:30N 47°33' W 122°21'0 0.0
2015-Aug-14 16:30N 47°33' W 122°21'0 0.0
2015-Aug-14 15:33N 47°33' W 122°21'0 0.0
2015-Aug-14 14:30N 47°33' W 122°21'0 0.0
2015-Aug-14 13:06N 47°33' W 122°21'0 0.0
2015-Aug-14 12:32N 47°33' W 122°21'0 0.0
2015-Aug-14 11:20N 47°33' W 122°21'0 0.0
2015-Aug-14 10:26N 47°33' W 122°21'0 0.0
2015-Aug-14 09:32N 47°33' W 122°21'0 0.0
2015-Aug-14 08:32N 47°33' W 122°21'0 0.0
2015-Aug-14 07:23N 47°33' W 122°21'0 0.0
2015-Aug-14 06:23N 47°33' W 122°21'0 0.0
2015-Aug-14 05:26N 47°33' W 122°21'0 0.0
2015-Aug-14 04:32N 47°33' W 122°21'0 0.0
2015-Aug-14 03:32N 47°33' W 122°21'0 0.0
2015-Aug-14 02:26N 47°33' W 122°21'0 0.0
2015-Aug-14 01:32N 47°33' W 122°21'0 0.0
2015-Aug-14 00:32N 47°33' W 122°21'0 0.0
2015-Aug-13 23:32N 47°33' W 122°21'3 2.9
2015-Aug-13 22:33N 47°36' W 122°23'3 2.8
2015-Aug-13 21:33N 47°37' W 122°26'6 6.4
2015-Aug-13 20:33N 47°44' W 122°28'7 7.2
2015-Aug-13 19:33N 47°51' W 122°29'7 6.9
2015-Aug-13 18:33N 47°57' W 122°34'7 5.9
2015-Aug-13 17:21N 48°03' W 122°39'10 3.6
2015-Aug-13 14:33N 48°11' W 122°48'8 6.1
2015-Aug-13 13:15N 48°19' W 122°47'5 7.7
2015-Aug-13 12:33N 48°25' W 122°45'8 7.7
2015-Aug-13 11:33N 48°32' W 122°45'7 6.9
2015-Aug-13 10:33N 48°39' W 122°44'7 6.7
2015-Aug-13 09:33N 48°45' W 122°48'9 8.7
2015-Aug-13 08:33N 48°50' W 122°59'8 7.9
2015-Aug-13 07:33N 48°55' W 123°09'8 7.6
2015-Aug-13 06:33N 48°60' W 123°17'6 6.4
2015-Aug-13 05:33N 49°06' W 123°19'5 5.4
2015-Aug-13 04:33N 49°07' W 123°11'5 5.4
2015-Aug-13 03:33N 49°08' W 123°03'2 1.9
2015-Aug-13 02:29N 49°09' W 123°00'0 0.0
2015-Aug-13 01:20N 49°09' W 123°00'0 0.0
2015-Aug-13 00:23N 49°09' W 123°00'0 0.0
2015-Aug-12 23:26N 49°09' W 123°00'0 0.0
2015-Aug-12 22:29N 49°09' W 123°00'0 0.0
2015-Aug-12 21:32N 49°09' W 123°00'0 0.0
2015-Aug-12 20:29N 49°09' W 123°00'0 0.0
2015-Aug-12 18:17N 49°09' W 123°00'  
Track history (hours):
 
Tides and Currents Weather Stations Pressure Air Temp Water Temp Dewpoint Dewpoint Depression Visibility Wind Speed Wind Dir Waves Ship Positions

M. Luther

Owner: Salmon Bay Barge Line, Inc., Seattle, WA. More information available from US FCC via Universal Licensing System and Coast Guard Vessel Documentation Center.

Last reported at 2015-Aug-22 17:33 UTC. Time now 2015-Aug-28 12:46 UTC.
Position N 47°33' W 122°21'.

Length 28 m; draft 4.1 m.

Type: Tow > 200 m length. MMSI: 367070410.

Date/timePositionNaut miles runAvg speedWind from/ knotsBaromVisibWave heightAir tempDewpointWater temp
2015-Aug-22 17:33N 47°33' W 122°21'0 0.0
2015-Aug-22 16:34N 47°33' W 122°21'4 4.4
2015-Aug-22 15:33N 47°37' W 122°25'6 6.4
2015-Aug-22 14:33N 47°43' W 122°28'7 7.1
2015-Aug-22 13:33N 47°50' W 122°29'7 6.7
2015-Aug-22 12:33N 47°56' W 122°33'6 6.2
2015-Aug-22 11:32N 48°01' W 122°39'6 5.3
2015-Aug-22 10:21N 48°07' W 122°42'5 5.3
2015-Aug-22 09:29N 48°10' W 122°47'4 4.6
2015-Aug-22 08:31N 48°14' W 122°49'8 7.8
2015-Aug-22 07:33N 48°21' W 122°46'8 8.6
2015-Aug-22 06:33N 48°30' W 122°45'8 8.1
2015-Aug-22 05:33N 48°38' W 122°45'7 6.9
2015-Aug-22 04:32N 48°45' W 122°47'8 7.7
2015-Aug-22 03:33N 48°49' W 122°57'8 8.0
2015-Aug-22 02:33N 48°54' W 123°07'7 7.4
2015-Aug-22 01:33N 48°59' W 123°15'6 6.3
2015-Aug-22 00:33N 49°04' W 123°20'6 6.0
2015-Aug-21 23:33N 49°08' W 123°13'7 6.6
2015-Aug-21 22:33N 49°08' W 123°03'2 2.0
2015-Aug-21 21:29N 49°09' W 123°00'0 0.0
2015-Aug-21 20:29N 49°09' W 123°00'0 0.0
2015-Aug-21 19:32N 49°09' W 123°00'0 0.0
2015-Aug-21 18:32N 49°09' W 123°00'0 0.0
2015-Aug-21 17:32N 49°09' W 123°00'0 0.0
2015-Aug-21 16:32N 49°09' W 123°00'0 0.0
2015-Aug-21 15:32N 49°09' W 123°00'0 0.0
2015-Aug-21 14:31N 49°09' W 123°00'0 0.0
2015-Aug-21 13:22N 49°09' W 123°00'0 0.0
2015-Aug-21 12:31N 49°09' W 123°00'0 0.0
2015-Aug-21 11:31N 49°09' W 123°00'0 0.0
2015-Aug-21 10:32N 49°09' W 123°00'0 0.0
2015-Aug-21 09:33N 49°09' W 123°00'0 0.0
2015-Aug-21 08:33N 49°09' W 123°00'0 0.0
2015-Aug-21 07:30N 49°09' W 123°00'0 0.0
2015-Aug-21 06:33N 49°09' W 123°00'0 0.0
2015-Aug-21 05:33N 49°09' W 123°00'0 0.0
2015-Aug-21 04:33N 49°09' W 123°00'0 0.0
2015-Aug-21 03:33N 49°09' W 123°00'0 0.0
2015-Aug-21 02:21N 49°09' W 123°00'0 0.0
2015-Aug-21 01:33N 49°09' W 123°00'0 0.0
2015-Aug-21 00:33N 49°09' W 123°00'0 0.0
2015-Aug-20 23:33N 49°09' W 123°00'0 0.0
2015-Aug-20 22:33N 49°09' W 123°00'0 0.0
2015-Aug-20 21:33N 49°09' W 123°00'0 0.0
2015-Aug-20 20:33N 49°09' W 123°00'0 0.0
2015-Aug-20 19:33N 49°09' W 123°00'0 0.0
2015-Aug-20 18:33N 49°09' W 123°00'0 0.0
2015-Aug-20 17:33N 49°09' W 123°00'0 0.0
2015-Aug-20 16:33N 49°09' W 123°00'0 0.0
2015-Aug-20 15:33N 49°09' W 123°00'0 0.0
2015-Aug-20 14:32N 49°09' W 123°00'0 0.0
2015-Aug-20 13:32N 49°09' W 123°00'0 0.0
2015-Aug-20 12:32N 49°09' W 123°00'0 0.0
2015-Aug-20 11:32N 49°09' W 123°00'0 0.0
2015-Aug-20 10:32N 49°09' W 123°00'0 0.0
2015-Aug-20 09:31N 49°09' W 123°00'0 0.0
2015-Aug-20 08:31N 49°09' W 123°00'0 0.0
2015-Aug-20 07:31N 49°09' W 123°00'0 0.0
2015-Aug-20 06:28N 49°09' W 123°00'0 0.0
2015-Aug-20 05:28N 49°09' W 123°00'0 0.0
2015-Aug-20 04:28N 49°09' W 123°00'0 0.0
2015-Aug-20 03:28N 49°09' W 123°00'0 0.0
2015-Aug-20 01:28N 49°09' W 123°00'0 0.0
2015-Aug-19 21:28N 49°09' W 123°00'0 0.0
2015-Aug-19 20:28N 49°09' W 123°00'0 0.0
2015-Aug-19 19:31N 49°09' W 123°00'0 0.0
2015-Aug-19 18:28N 49°09' W 123°00'0 0.0
2015-Aug-19 17:28N 49°09' W 123°00'0 0.0
2015-Aug-19 16:31N 49°09' W 123°00'0 0.0
2015-Aug-19 15:31N 49°09' W 123°00'0 0.0
2015-Aug-19 14:28N 49°09' W 123°00'0 0.0
2015-Aug-19 13:33N 49°09' W 123°00'0 0.0
2015-Aug-19 12:34N 49°09' W 123°00'2 2.3
2015-Aug-19 11:33N 49°08' W 123°03'5 4.7
2015-Aug-19 10:33N 49°07' W 123°10'4 4.5
2015-Aug-19 09:33N 49°07' W 123°17'4 3.7
2015-Aug-19 08:33N 49°03' W 123°18'5 5.4
2015-Aug-19 07:33N 48°59' W 123°12'5 5.4
2015-Aug-19 06:33N 48°56' W 123°05'5 5.3
2015-Aug-19 05:33N 48°52' W 122°59'8 7.7
2015-Aug-19 04:33N 48°47' W 122°50'8 7.8
2015-Aug-19 03:33N 48°41' W 122°43'9 9.4
2015-Aug-19 02:33N 48°32' W 122°44'9 9.2
2015-Aug-19 01:33N 48°23' W 122°44'25 6.3
2015-Aug-18 21:32N 47°58' W 122°34'8 7.7
2015-Aug-18 20:33N 47°52' W 122°28'8 8.2
2015-Aug-18 19:33N 47°44' W 122°26'8 7.6
2015-Aug-18 18:33N 47°37' W 122°23'4 3.7
2015-Aug-18 17:33N 47°33' W 122°21'0 0.0
2015-Aug-18 16:33N 47°33' W 122°21'0 0.0
2015-Aug-18 15:33N 47°33' W 122°21'0 0.0
2015-Aug-18 14:24N 47°33' W 122°21'0 0.0
2015-Aug-18 13:33N 47°33' W 122°21'0 0.0
2015-Aug-18 12:33N 47°33' W 122°21'0 0.0
2015-Aug-18 11:24N 47°33' W 122°21'0 0.0
2015-Aug-18 10:24N 47°33' W 122°21'0 0.0
2015-Aug-18 06:24N 47°33' W 122°21'0 0.0
2015-Aug-17 04:08N 47°33' W 122°21'0 0.0
2015-Aug-17 03:32N 47°33' W 122°21'0 0.0
2015-Aug-17 02:32N 47°33' W 122°21'0 0.0
2015-Aug-17 01:32N 47°33' W 122°21'0 0.0
2015-Aug-17 00:32N 47°33' W 122°21'0 0.0
2015-Aug-16 23:32N 47°33' W 122°21'0 0.0
2015-Aug-16 22:32N 47°33' W 122°21'0 0.0
2015-Aug-16 21:08N 47°33' W 122°21'0 0.0
2015-Aug-16 20:32N 47°33' W 122°21'0 0.0
2015-Aug-16 12:10N 47°33' W 122°21'0 0.0
2015-Aug-16 04:28N 47°33' W 122°21'0 0.0
2015-Aug-16 03:22N 47°33' W 122°21'0 0.0
2015-Aug-16 02:25N 47°33' W 122°21'0 0.0
2015-Aug-16 01:22N 47°33' W 122°21'0 0.0
2015-Aug-16 00:16N 47°33' W 122°21'0 0.0
2015-Aug-15 23:33N 47°33' W 122°21'0 0.0
2015-Aug-15 22:33N 47°33' W 122°21'0 0.0
2015-Aug-15 20:18N 47°33' W 122°21'0 0.0
2015-Aug-15 18:33N 47°33' W 122°21'0 0.0
2015-Aug-15 17:30N 47°33' W 122°21'0 0.0
2015-Aug-15 16:33N 47°33' W 122°21'0 0.0
2015-Aug-15 15:33N 47°33' W 122°21'0 0.0
2015-Aug-15 14:18N 47°33' W 122°21'0 0.0
2015-Aug-15 12:12N 47°33' W 122°21'0 0.0
2015-Aug-15 11:27N 47°33' W 122°21'0 0.0
2015-Aug-15 10:30N 47°33' W 122°21'0 0.0
2015-Aug-15 09:33N 47°33' W 122°21'0 0.0
2015-Aug-15 08:24N 47°33' W 122°21'0 0.0
2015-Aug-15 07:33N 47°33' W 122°21'0 0.0
2015-Aug-15 06:30N 47°33' W 122°21'0 0.0
2015-Aug-15 03:30N 47°33' W 122°21'0 0.0
2015-Aug-15 02:12N 47°33' W 122°21'0 0.0
2015-Aug-15 01:30N 47°33' W 122°21'0 0.0
2015-Aug-15 00:33N 47°33' W 122°21'0 0.0
2015-Aug-14 23:33N 47°33' W 122°21'0 0.0
2015-Aug-14 22:24N 47°33' W 122°21'0 0.0
2015-Aug-14 21:27N 47°33' W 122°21'0 0.0
2015-Aug-14 18:30N 47°33' W 122°21'0 0.0
2015-Aug-14 17:30N 47°33' W 122°21'0 0.0
2015-Aug-14 16:30N 47°33' W 122°21'0 0.0
2015-Aug-14 15:33N 47°33' W 122°21'0 0.0
2015-Aug-14 14:30N 47°33' W 122°21'0 0.0
2015-Aug-14 13:06N 47°33' W 122°21'0 0.0
2015-Aug-14 12:32N 47°33' W 122°21'0 0.0
2015-Aug-14 11:20N 47°33' W 122°21'0 0.0
2015-Aug-14 10:26N 47°33' W 122°21'0 0.0
2015-Aug-14 09:32N 47°33' W 122°21'0 0.0
2015-Aug-14 08:32N 47°33' W 122°21'0 0.0
2015-Aug-14 07:23N 47°33' W 122°21'0 0.0
2015-Aug-14 06:23N 47°33' W 122°21'0 0.0
2015-Aug-14 05:26N 47°33' W 122°21'0 0.0
2015-Aug-14 04:32N 47°33' W 122°21'0 0.0
2015-Aug-14 03:32N 47°33' W 122°21'0 0.0
2015-Aug-14 02:26N 47°33' W 122°21'0 0.0
2015-Aug-14 01:32N 47°33' W 122°21'0 0.0
2015-Aug-14 00:32N 47°33' W 122°21'0 0.0
2015-Aug-13 23:32N 47°33' W 122°21'3 2.9
2015-Aug-13 22:33N 47°36' W 122°23'3 2.8
2015-Aug-13 21:33N 47°37' W 122°26'6 6.4
2015-Aug-13 20:33N 47°44' W 122°28'7 7.2
2015-Aug-13 19:33N 47°51' W 122°29'7 6.9
2015-Aug-13 18:33N 47°57' W 122°34'7 5.9
2015-Aug-13 17:21N 48°03' W 122°39'10 3.6
2015-Aug-13 14:33N 48°11' W 122°48'8 6.1
2015-Aug-13 13:15N 48°19' W 122°47'5 7.7
2015-Aug-13 12:33N 48°25' W 122°45'8 7.7
2015-Aug-13 11:33N 48°32' W 122°45'7 6.9
2015-Aug-13 10:33N 48°39' W 122°44'7 6.7
2015-Aug-13 09:33N 48°45' W 122°48'9 8.7
2015-Aug-13 08:33N 48°50' W 122°59'8 7.9
2015-Aug-13 07:33N 48°55' W 123°09'8 7.6
2015-Aug-13 06:33N 48°60' W 123°17'6 6.4
2015-Aug-13 05:33N 49°06' W 123°19'5 5.4
2015-Aug-13 04:33N 49°07' W 123°11'5 5.4
2015-Aug-13 03:33N 49°08' W 123°03'2 1.9
2015-Aug-13 02:29N 49°09' W 123°00'0 0.0
2015-Aug-13 01:20N 49°09' W 123°00'0 0.0
2015-Aug-13 00:23N 49°09' W 123°00'0 0.0
2015-Aug-12 23:26N 49°09' W 123°00'0 0.0
2015-Aug-12 22:29N 49°09' W 123°00'0 0.0
2015-Aug-12 21:32N 49°09' W 123°00'0 0.0
2015-Aug-12 20:29N 49°09' W 123°00'0 0.0
2015-Aug-12 18:17N 49°09' W 123°00'  

Dump ship's entire track history